sensor_id;sensor_type;location;lat;lon;timestamp;P1;durP1;ratioP1;P2;durP2;ratioP2
14994;SDS011;7593;49.006;8.372;2022-11-24T00:01:02;8.23;;;2.85;;
14994;SDS011;7593;49.006;8.372;2022-11-24T00:03:31;7.32;;;2.55;;
14994;SDS011;7593;49.006;8.372;2022-11-24T00:06:02;6.55;;;2.58;;
14994;SDS011;7593;49.006;8.372;2022-11-24T00:08:30;6.53;;;2.53;;
14994;SDS011;7593;49.006;8.372;2022-11-24T00:11:01;9.70;;;2.88;;
14994;SDS011;7593;49.006;8.372;2022-11-24T00:13:28;7.15;;;2.47;;
14994;SDS011;7593;49.006;8.372;2022-11-24T00:16:04;6.15;;;2.40;;
14994;SDS011;7593;49.006;8.372;2022-11-24T00:18:31;6.93;;;2.47;;
14994;SDS011;7593;49.006;8.372;2022-11-24T00:20:58;7.00;;;2.58;;
14994;SDS011;7593;49.006;8.372;2022-11-24T00:23:25;6.70;;;2.60;;
14994;SDS011;7593;49.006;8.372;2022-11-24T00:25:52;8.20;;;2.70;;
14994;SDS011;7593;49.006;8.372;2022-11-24T00:28:19;7.10;;;2.28;;
14994;SDS011;7593;49.006;8.372;2022-11-24T00:30:46;11.13;;;3.08;;
14994;SDS011;7593;49.006;8.372;2022-11-24T00:33:14;5.43;;;2.17;;
14994;SDS011;7593;49.006;8.372;2022-11-24T00:35:41;5.63;;;2.33;;
14994;SDS011;7593;49.006;8.372;2022-11-24T00:38:08;5.82;;;2.20;;
14994;SDS011;7593;49.006;8.372;2022-11-24T00:40:35;7.97;;;2.40;;
14994;SDS011;7593;49.006;8.372;2022-11-24T00:43:02;6.32;;;2.40;;
14994;SDS011;7593;49.006;8.372;2022-11-24T00:45:29;7.97;;;2.40;;
14994;SDS011;7593;49.006;8.372;2022-11-24T00:47:56;5.25;;;2.22;;
14994;SDS011;7593;49.006;8.372;2022-11-24T00:50:24;7.10;;;2.50;;
14994;SDS011;7593;49.006;8.372;2022-11-24T00:52:51;6.75;;;2.40;;
14994;SDS011;7593;49.006;8.372;2022-11-24T00:55:18;5.97;;;2.50;;
14994;SDS011;7593;49.006;8.372;2022-11-24T00:57:45;6.15;;;2.22;;
14994;SDS011;7593;49.006;8.372;2022-11-24T01:00:12;6.25;;;2.05;;
14994;SDS011;7593;49.006;8.372;2022-11-24T01:02:40;7.32;;;1.95;;
14994;SDS011;7593;49.006;8.372;2022-11-24T01:05:07;5.82;;;2.45;;
14994;SDS011;7593;49.006;8.372;2022-11-24T01:07:36;9.02;;;2.80;;
14994;SDS011;7593;49.006;8.372;2022-11-24T01:10:03;5.15;;;2.42;;
14994;SDS011;7593;49.006;8.372;2022-11-24T01:12:30;7.53;;;2.22;;
14994;SDS011;7593;49.006;8.372;2022-11-24T01:14:57;6.70;;;2.03;;
14994;SDS011;7593;49.006;8.372;2022-11-24T01:17:25;6.25;;;1.95;;
14994;SDS011;7593;49.006;8.372;2022-11-24T01:19:52;3.67;;;1.77;;
14994;SDS011;7593;49.006;8.372;2022-11-24T01:22:19;7.25;;;2.00;;
14994;SDS011;7593;49.006;8.372;2022-11-24T01:24:47;7.50;;;2.40;;
14994;SDS011;7593;49.006;8.372;2022-11-24T01:27:14;4.88;;;2.08;;
14994;SDS011;7593;49.006;8.372;2022-11-24T01:29:41;5.63;;;1.73;;
14994;SDS011;7593;49.006;8.372;2022-11-24T01:32:07;5.60;;;2.03;;
14994;SDS011;7593;49.006;8.372;2022-11-24T01:34:34;3.85;;;1.58;;
14994;SDS011;7593;49.006;8.372;2022-11-24T01:37:01;5.40;;;1.95;;
14994;SDS011;7593;49.006;8.372;2022-11-24T01:39:28;6.50;;;1.92;;
14994;SDS011;7593;49.006;8.372;2022-11-24T01:41:57;4.75;;;1.98;;
14994;SDS011;7593;49.006;8.372;2022-11-24T01:44:26;3.72;;;1.80;;
14994;SDS011;7593;49.006;8.372;2022-11-24T01:46:55;5.82;;;1.60;;
14994;SDS011;7593;49.006;8.372;2022-11-24T01:49:26;5.45;;;1.70;;
14994;SDS011;7593;49.006;8.372;2022-11-24T01:52:02;3.30;;;1.70;;
14994;SDS011;7593;49.006;8.372;2022-11-24T01:54:34;4.60;;;1.63;;
14994;SDS011;7593;49.006;8.372;2022-11-24T01:57:06;5.65;;;1.77;;
14994;SDS011;7593;49.006;8.372;2022-11-24T01:59:38;4.75;;;1.90;;
14994;SDS011;7593;49.006;8.372;2022-11-24T02:02:05;5.30;;;1.60;;
14994;SDS011;7593;49.006;8.372;2022-11-24T02:04:33;3.75;;;1.60;;
14994;SDS011;7593;49.006;8.372;2022-11-24T02:07:01;8.15;;;2.38;;
14994;SDS011;7593;49.006;8.372;2022-11-24T02:09:31;5.30;;;1.95;;
14994;SDS011;7593;49.006;8.372;2022-11-24T02:12:06;5.13;;;2.30;;
14994;SDS011;7593;49.006;8.372;2022-11-24T02:14:33;6.15;;;2.00;;
14994;SDS011;7593;49.006;8.372;2022-11-24T02:17:02;5.53;;;1.90;;
14994;SDS011;7593;49.006;8.372;2022-11-24T02:19:32;5.03;;;1.65;;
14994;SDS011;7593;49.006;8.372;2022-11-24T02:22:07;3.95;;;1.92;;
14994;SDS011;7593;49.006;8.372;2022-11-24T02:24:40;4.65;;;1.90;;
14994;SDS011;7593;49.006;8.372;2022-11-24T02:27:13;5.55;;;2.05;;
14994;SDS011;7593;49.006;8.372;2022-11-24T02:29:40;5.07;;;2.08;;
14994;SDS011;7593;49.006;8.372;2022-11-24T02:32:08;7.93;;;2.65;;
14994;SDS011;7593;49.006;8.372;2022-11-24T02:34:36;4.50;;;1.70;;
14994;SDS011;7593;49.006;8.372;2022-11-24T02:37:03;5.80;;;2.20;;
14994;SDS011;7593;49.006;8.372;2022-11-24T02:39:30;5.53;;;2.03;;
14994;SDS011;7593;49.006;8.372;2022-11-24T02:41:57;6.72;;;2.00;;
14994;SDS011;7593;49.006;8.372;2022-11-24T02:44:28;4.18;;;1.80;;
14994;SDS011;7593;49.006;8.372;2022-11-24T02:47:02;6.03;;;2.03;;
14994;SDS011;7593;49.006;8.372;2022-11-24T02:49:30;4.53;;;1.70;;
14994;SDS011;7593;49.006;8.372;2022-11-24T02:51:57;5.88;;;1.98;;
14994;SDS011;7593;49.006;8.372;2022-11-24T02:54:24;4.50;;;1.65;;
14994;SDS011;7593;49.006;8.372;2022-11-24T02:56:51;6.20;;;2.20;;
14994;SDS011;7593;49.006;8.372;2022-11-24T02:59:19;9.10;;;2.05;;
14994;SDS011;7593;49.006;8.372;2022-11-24T03:01:47;4.80;;;1.75;;
14994;SDS011;7593;49.006;8.372;2022-11-24T03:04:14;5.63;;;2.22;;
14994;SDS011;7593;49.006;8.372;2022-11-24T03:06:41;7.93;;;2.17;;
14994;SDS011;7593;49.006;8.372;2022-11-24T03:09:08;4.05;;;1.98;;
14994;SDS011;7593;49.006;8.372;2022-11-24T03:11:35;5.72;;;2.20;;
14994;SDS011;7593;49.006;8.372;2022-11-24T03:14:02;6.45;;;1.90;;
14994;SDS011;7593;49.006;8.372;2022-11-24T03:16:29;6.32;;;2.30;;
14994;SDS011;7593;49.006;8.372;2022-11-24T03:18:58;4.50;;;1.90;;
14994;SDS011;7593;49.006;8.372;2022-11-24T03:21:25;8.20;;;1.90;;
14994;SDS011;7593;49.006;8.372;2022-11-24T03:23:52;4.85;;;2.03;;
14994;SDS011;7593;49.006;8.372;2022-11-24T03:26:20;6.75;;;2.08;;
14994;SDS011;7593;49.006;8.372;2022-11-24T03:28:48;8.23;;;2.30;;
14994;SDS011;7593;49.006;8.372;2022-11-24T03:31:17;5.35;;;2.25;;
14994;SDS011;7593;49.006;8.372;2022-11-24T03:33:44;6.18;;;2.10;;
14994;SDS011;7593;49.006;8.372;2022-11-24T03:36:13;10.60;;;2.30;;
14994;SDS011;7593;49.006;8.372;2022-11-24T03:38:40;7.70;;;2.78;;
14994;SDS011;7593;49.006;8.372;2022-11-24T03:41:08;7.47;;;2.38;;
14994;SDS011;7593;49.006;8.372;2022-11-24T03:43:35;5.57;;;1.90;;
14994;SDS011;7593;49.006;8.372;2022-11-24T03:46:02;4.72;;;2.10;;
14994;SDS011;7593;49.006;8.372;2022-11-24T03:48:29;5.90;;;2.00;;
14994;SDS011;7593;49.006;8.372;2022-11-24T03:50:56;8.27;;;2.40;;
14994;SDS011;7593;49.006;8.372;2022-11-24T03:53:26;7.95;;;2.53;;
14994;SDS011;7593;49.006;8.372;2022-11-24T03:55:54;6.55;;;2.40;;
14994;SDS011;7593;49.006;8.372;2022-11-24T03:58:22;9.35;;;2.35;;
14994;SDS011;7593;49.006;8.372;2022-11-24T04:00:49;5.07;;;2.22;;
14994;SDS011;7593;49.006;8.372;2022-11-24T04:03:17;6.13;;;2.28;;
14994;SDS011;7593;49.006;8.372;2022-11-24T04:05:44;7.20;;;2.10;;
14994;SDS011;7593;49.006;8.372;2022-11-24T04:08:11;8.60;;;2.50;;
14994;SDS011;7593;49.006;8.372;2022-11-24T04:10:41;8.32;;;2.55;;
14994;SDS011;7593;49.006;8.372;2022-11-24T04:13:10;11.23;;;2.97;;
14994;SDS011;7593;49.006;8.372;2022-11-24T04:15:37;7.60;;;2.28;;
14994;SDS011;7593;49.006;8.372;2022-11-24T04:18:05;7.00;;;2.83;;
14994;SDS011;7593;49.006;8.372;2022-11-24T04:20:33;9.65;;;2.40;;
14994;SDS011;7593;49.006;8.372;2022-11-24T04:23:00;9.07;;;2.63;;
14994;SDS011;7593;49.006;8.372;2022-11-24T04:25:27;8.73;;;3.03;;
14994;SDS011;7593;49.006;8.372;2022-11-24T04:27:55;9.05;;;2.50;;
14994;SDS011;7593;49.006;8.372;2022-11-24T04:30:23;8.30;;;2.60;;
14994;SDS011;7593;49.006;8.372;2022-11-24T04:32:51;7.72;;;2.53;;
14994;SDS011;7593;49.006;8.372;2022-11-24T04:35:17;7.85;;;2.72;;
14994;SDS011;7593;49.006;8.372;2022-11-24T04:37:44;6.80;;;2.30;;
14994;SDS011;7593;49.006;8.372;2022-11-24T04:40:11;6.28;;;2.75;;
14994;SDS011;7593;49.006;8.372;2022-11-24T04:42:39;8.63;;;2.85;;
14994;SDS011;7593;49.006;8.372;2022-11-24T04:45:08;8.20;;;2.47;;
14994;SDS011;7593;49.006;8.372;2022-11-24T04:47:36;6.82;;;2.40;;
14994;SDS011;7593;49.006;8.372;2022-11-24T04:50:04;8.00;;;2.45;;
14994;SDS011;7593;49.006;8.372;2022-11-24T04:52:32;10.05;;;2.75;;
14994;SDS011;7593;49.006;8.372;2022-11-24T04:54:59;7.97;;;2.88;;
14994;SDS011;7593;49.006;8.372;2022-11-24T04:57:26;9.50;;;2.45;;
14994;SDS011;7593;49.006;8.372;2022-11-24T04:59:53;9.70;;;2.38;;
14994;SDS011;7593;49.006;8.372;2022-11-24T05:02:21;9.15;;;2.92;;
14994;SDS011;7593;49.006;8.372;2022-11-24T05:04:48;8.70;;;2.50;;
14994;SDS011;7593;49.006;8.372;2022-11-24T05:07:16;8.38;;;2.80;;
14994;SDS011;7593;49.006;8.372;2022-11-24T05:09:43;7.13;;;2.58;;
14994;SDS011;7593;49.006;8.372;2022-11-24T05:12:28;9.30;;;2.63;;
14994;SDS011;7593;49.006;8.372;2022-11-24T05:14:55;11.02;;;3.40;;
14994;SDS011;7593;49.006;8.372;2022-11-24T05:17:26;7.13;;;2.67;;
14994;SDS011;7593;49.006;8.372;2022-11-24T05:19:54;7.53;;;2.70;;
14994;SDS011;7593;49.006;8.372;2022-11-24T05:22:22;8.55;;;2.78;;
14994;SDS011;7593;49.006;8.372;2022-11-24T05:24:49;10.30;;;2.92;;
14994;SDS011;7593;49.006;8.372;2022-11-24T05:27:16;10.52;;;3.00;;
14994;SDS011;7593;49.006;8.372;2022-11-24T05:29:42;11.45;;;3.00;;
14994;SDS011;7593;49.006;8.372;2022-11-24T05:32:09;7.68;;;3.00;;
14994;SDS011;7593;49.006;8.372;2022-11-24T05:34:38;8.45;;;3.38;;
14994;SDS011;7593;49.006;8.372;2022-11-24T05:37:04;7.30;;;2.60;;
14994;SDS011;7593;49.006;8.372;2022-11-24T05:39:32;12.07;;;3.05;;
14994;SDS011;7593;49.006;8.372;2022-11-24T05:42:00;10.30;;;3.20;;
14994;SDS011;7593;49.006;8.372;2022-11-24T05:44:48;12.68;;;3.25;;
14994;SDS011;7593;49.006;8.372;2022-11-24T05:47:15;11.00;;;3.40;;
14994;SDS011;7593;49.006;8.372;2022-11-24T05:49:43;12.15;;;3.50;;
14994;SDS011;7593;49.006;8.372;2022-11-24T05:52:10;8.68;;;3.17;;
14994;SDS011;7593;49.006;8.372;2022-11-24T05:54:37;11.75;;;3.30;;
14994;SDS011;7593;49.006;8.372;2022-11-24T05:57:04;17.30;;;3.60;;
14994;SDS011;7593;49.006;8.372;2022-11-24T05:59:31;12.13;;;3.65;;
14994;SDS011;7593;49.006;8.372;2022-11-24T06:01:58;11.13;;;3.17;;
14994;SDS011;7593;49.006;8.372;2022-11-24T06:04:25;11.48;;;3.70;;
14994;SDS011;7593;49.006;8.372;2022-11-24T06:06:53;11.63;;;2.97;;
14994;SDS011;7593;49.006;8.372;2022-11-24T06:09:20;12.85;;;3.75;;
14994;SDS011;7593;49.006;8.372;2022-11-24T06:11:47;15.13;;;3.58;;
14994;SDS011;7593;49.006;8.372;2022-11-24T06:14:14;15.77;;;3.58;;
14994;SDS011;7593;49.006;8.372;2022-11-24T06:16:41;14.02;;;2.97;;
14994;SDS011;7593;49.006;8.372;2022-11-24T06:19:08;14.52;;;3.30;;
14994;SDS011;7593;49.006;8.372;2022-11-24T06:21:34;15.25;;;3.45;;
14994;SDS011;7593;49.006;8.372;2022-11-24T06:24:03;12.32;;;3.78;;
14994;SDS011;7593;49.006;8.372;2022-11-24T06:26:30;17.60;;;4.30;;
14994;SDS011;7593;49.006;8.372;2022-11-24T06:28:59;14.88;;;3.22;;
14994;SDS011;7593;49.006;8.372;2022-11-24T06:31:26;12.68;;;3.45;;
14994;SDS011;7593;49.006;8.372;2022-11-24T06:33:53;11.63;;;2.92;;
14994;SDS011;7593;49.006;8.372;2022-11-24T06:36:20;11.57;;;3.28;;
14994;SDS011;7593;49.006;8.372;2022-11-24T06:38:47;15.15;;;3.63;;
14994;SDS011;7593;49.006;8.372;2022-11-24T06:41:15;18.88;;;3.58;;
14994;SDS011;7593;49.006;8.372;2022-11-24T06:43:42;13.30;;;3.45;;
14994;SDS011;7593;49.006;8.372;2022-11-24T06:46:10;18.48;;;3.72;;
14994;SDS011;7593;49.006;8.372;2022-11-24T06:48:37;19.08;;;4.20;;
14994;SDS011;7593;49.006;8.372;2022-11-24T06:51:05;13.50;;;3.10;;
14994;SDS011;7593;49.006;8.372;2022-11-24T06:53:35;19.70;;;4.10;;
14994;SDS011;7593;49.006;8.372;2022-11-24T06:56:03;19.05;;;4.60;;
14994;SDS011;7593;49.006;8.372;2022-11-24T06:58:32;17.25;;;3.92;;
14994;SDS011;7593;49.006;8.372;2022-11-24T07:00:59;15.55;;;3.80;;
14994;SDS011;7593;49.006;8.372;2022-11-24T07:03:26;18.88;;;3.78;;
14994;SDS011;7593;49.006;8.372;2022-11-24T07:05:54;14.13;;;3.17;;
14994;SDS011;7593;49.006;8.372;2022-11-24T07:08:22;13.07;;;3.45;;
14994;SDS011;7593;49.006;8.372;2022-11-24T07:10:50;12.50;;;3.30;;
14994;SDS011;7593;49.006;8.372;2022-11-24T07:13:17;14.63;;;3.40;;
14994;SDS011;7593;49.006;8.372;2022-11-24T07:15:46;16.83;;;3.47;;
14994;SDS011;7593;49.006;8.372;2022-11-24T07:18:13;11.93;;;2.92;;
14994;SDS011;7593;49.006;8.372;2022-11-24T07:20:40;8.02;;;2.63;;
14994;SDS011;7593;49.006;8.372;2022-11-24T07:23:07;13.70;;;2.70;;
14994;SDS011;7593;49.006;8.372;2022-11-24T07:25:34;7.15;;;2.50;;
14994;SDS011;7593;49.006;8.372;2022-11-24T07:28:01;16.13;;;3.30;;
14994;SDS011;7593;49.006;8.372;2022-11-24T07:30:29;10.02;;;3.33;;
14994;SDS011;7593;49.006;8.372;2022-11-24T07:33:00;10.70;;;3.22;;
14994;SDS011;7593;49.006;8.372;2022-11-24T07:35:28;11.63;;;2.58;;
14994;SDS011;7593;49.006;8.372;2022-11-24T07:37:56;10.60;;;3.00;;
14994;SDS011;7593;49.006;8.372;2022-11-24T07:40:23;13.05;;;2.60;;
14994;SDS011;7593;49.006;8.372;2022-11-24T07:42:51;8.32;;;2.45;;
14994;SDS011;7593;49.006;8.372;2022-11-24T07:45:18;8.27;;;2.25;;
14994;SDS011;7593;49.006;8.372;2022-11-24T07:47:45;8.48;;;2.53;;
14994;SDS011;7593;49.006;8.372;2022-11-24T07:50:13;6.60;;;2.70;;
14994;SDS011;7593;49.006;8.372;2022-11-24T07:52:40;9.27;;;2.35;;
14994;SDS011;7593;49.006;8.372;2022-11-24T07:55:07;6.72;;;2.10;;
14994;SDS011;7593;49.006;8.372;2022-11-24T07:57:35;5.38;;;2.08;;
14994;SDS011;7593;49.006;8.372;2022-11-24T08:00:02;7.40;;;2.20;;
14994;SDS011;7593;49.006;8.372;2022-11-24T08:02:30;6.97;;;2.28;;
14994;SDS011;7593;49.006;8.372;2022-11-24T08:04:57;10.77;;;4.97;;
14994;SDS011;7593;49.006;8.372;2022-11-24T08:07:25;11.32;;;4.13;;
14994;SDS011;7593;49.006;8.372;2022-11-24T08:09:52;5.30;;;2.25;;
14994;SDS011;7593;49.006;8.372;2022-11-24T08:12:19;5.40;;;2.03;;
14994;SDS011;7593;49.006;8.372;2022-11-24T08:14:47;3.95;;;1.80;;
14994;SDS011;7593;49.006;8.372;2022-11-24T08:17:14;6.70;;;2.20;;
14994;SDS011;7593;49.006;8.372;2022-11-24T08:19:41;5.45;;;2.33;;
14994;SDS011;7593;49.006;8.372;2022-11-24T08:22:08;4.80;;;1.92;;
14994;SDS011;7593;49.006;8.372;2022-11-24T08:24:36;4.53;;;2.05;;
14994;SDS011;7593;49.006;8.372;2022-11-24T08:27:10;9.20;;;3.03;;
14994;SDS011;7593;49.006;8.372;2022-11-24T08:29:37;3.78;;;1.88;;
14994;SDS011;7593;49.006;8.372;2022-11-24T08:32:04;5.07;;;1.83;;
14994;SDS011;7593;49.006;8.372;2022-11-24T08:34:33;6.07;;;1.60;;
14994;SDS011;7593;49.006;8.372;2022-11-24T08:37:01;4.47;;;1.73;;
14994;SDS011;7593;49.006;8.372;2022-11-24T08:39:28;4.95;;;1.30;;
14994;SDS011;7593;49.006;8.372;2022-11-24T08:41:57;4.28;;;1.48;;
14994;SDS011;7593;49.006;8.372;2022-11-24T08:44:24;2.10;;;1.38;;
14994;SDS011;7593;49.006;8.372;2022-11-24T08:46:52;1.77;;;1.10;;
14994;SDS011;7593;49.006;8.372;2022-11-24T08:49:20;3.05;;;1.65;;
14994;SDS011;7593;49.006;8.372;2022-11-24T08:51:47;2.13;;;1.20;;
14994;SDS011;7593;49.006;8.372;2022-11-24T08:54:15;2.08;;;0.90;;
14994;SDS011;7593;49.006;8.372;2022-11-24T08:56:43;5.03;;;1.67;;
14994;SDS011;7593;49.006;8.372;2022-11-24T08:59:12;4.20;;;1.40;;
14994;SDS011;7593;49.006;8.372;2022-11-24T09:01:39;3.53;;;1.48;;
14994;SDS011;7593;49.006;8.372;2022-11-24T09:04:07;2.92;;;1.40;;
14994;SDS011;7593;49.006;8.372;2022-11-24T09:06:34;3.28;;;1.95;;
14994;SDS011;7593;49.006;8.372;2022-11-24T09:09:01;6.15;;;1.92;;
14994;SDS011;7593;49.006;8.372;2022-11-24T09:11:28;9.65;;;4.50;;
14994;SDS011;7593;49.006;8.372;2022-11-24T09:13:56;7.15;;;3.20;;
14994;SDS011;7593;49.006;8.372;2022-11-24T09:16:26;5.65;;;2.25;;
14994;SDS011;7593;49.006;8.372;2022-11-24T09:18:55;8.45;;;3.40;;
14994;SDS011;7593;49.006;8.372;2022-11-24T09:21:25;10.15;;;4.72;;
14994;SDS011;7593;49.006;8.372;2022-11-24T09:23:52;4.22;;;1.70;;
14994;SDS011;7593;49.006;8.372;2022-11-24T09:26:20;6.07;;;1.48;;
14994;SDS011;7593;49.006;8.372;2022-11-24T09:28:49;3.22;;;1.52;;
14994;SDS011;7593;49.006;8.372;2022-11-24T09:31:18;4.15;;;1.50;;
14994;SDS011;7593;49.006;8.372;2022-11-24T09:33:50;3.05;;;1.30;;
14994;SDS011;7593;49.006;8.372;2022-11-24T09:36:17;3.00;;;1.63;;
14994;SDS011;7593;49.006;8.372;2022-11-24T09:38:45;4.15;;;1.92;;
14994;SDS011;7593;49.006;8.372;2022-11-24T09:41:20;4.60;;;1.75;;
14994;SDS011;7593;49.006;8.372;2022-11-24T09:44:07;4.50;;;1.80;;
14994;SDS011;7593;49.006;8.372;2022-11-24T09:46:46;2.80;;;1.52;;
14994;SDS011;7593;49.006;8.372;2022-11-24T09:49:21;4.72;;;1.70;;
14994;SDS011;7593;49.006;8.372;2022-11-24T09:51:55;5.22;;;1.58;;
14994;SDS011;7593;49.006;8.372;2022-11-24T09:54:24;4.57;;;1.40;;
14994;SDS011;7593;49.006;8.372;2022-11-24T09:56:53;7.13;;;3.08;;
14994;SDS011;7593;49.006;8.372;2022-11-24T09:59:23;7.28;;;2.20;;
14994;SDS011;7593;49.006;8.372;2022-11-24T10:01:51;6.70;;;2.80;;
14994;SDS011;7593;49.006;8.372;2022-11-24T10:04:21;6.10;;;2.15;;
14994;SDS011;7593;49.006;8.372;2022-11-24T10:06:54;6.88;;;3.65;;
14994;SDS011;7593;49.006;8.372;2022-11-24T10:09:31;8.02;;;3.15;;
14994;SDS011;7593;49.006;8.372;2022-11-24T10:12:12;8.77;;;3.95;;
14994;SDS011;7593;49.006;8.372;2022-11-24T10:14:51;6.47;;;2.50;;
14994;SDS011;7593;49.006;8.372;2022-11-24T10:17:37;5.75;;;2.78;;
14994;SDS011;7593;49.006;8.372;2022-11-24T10:20:16;9.30;;;3.03;;
14994;SDS011;7593;49.006;8.372;2022-11-24T10:22:54;6.38;;;2.78;;
14994;SDS011;7593;49.006;8.372;2022-11-24T10:25:29;9.55;;;3.80;;
14994;SDS011;7593;49.006;8.372;2022-11-24T10:28:07;6.63;;;2.92;;
14994;SDS011;7593;49.006;8.372;2022-11-24T10:30:37;5.13;;;2.80;;
14994;SDS011;7593;49.006;8.372;2022-11-24T10:33:06;6.40;;;2.85;;
14994;SDS011;7593;49.006;8.372;2022-11-24T10:35:43;6.50;;;3.00;;
14994;SDS011;7593;49.006;8.372;2022-11-24T10:38:19;7.85;;;2.72;;
14994;SDS011;7593;49.006;8.372;2022-11-24T10:40:55;9.55;;;2.90;;
14994;SDS011;7593;49.006;8.372;2022-11-24T10:43:26;10.13;;;3.40;;
14994;SDS011;7593;49.006;8.372;2022-11-24T10:45:54;7.82;;;2.47;;
14994;SDS011;7593;49.006;8.372;2022-11-24T10:48:25;10.13;;;3.10;;
14994;SDS011;7593;49.006;8.372;2022-11-24T10:51:15;9.82;;;2.95;;
14994;SDS011;7593;49.006;8.372;2022-11-24T10:53:57;11.77;;;3.30;;
14994;SDS011;7593;49.006;8.372;2022-11-24T10:56:37;6.53;;;2.67;;
14994;SDS011;7593;49.006;8.372;2022-11-24T10:59:18;8.65;;;2.55;;
14994;SDS011;7593;49.006;8.372;2022-11-24T11:01:47;11.82;;;2.72;;
14994;SDS011;7593;49.006;8.372;2022-11-24T11:04:16;10.88;;;3.80;;
14994;SDS011;7593;49.006;8.372;2022-11-24T11:06:46;7.88;;;2.95;;
14994;SDS011;7593;49.006;8.372;2022-11-24T11:09:17;7.35;;;2.53;;
14994;SDS011;7593;49.006;8.372;2022-11-24T11:11:46;9.00;;;2.75;;
14994;SDS011;7593;49.006;8.372;2022-11-24T11:14:27;12.18;;;2.70;;
14994;SDS011;7593;49.006;8.372;2022-11-24T11:16:55;9.05;;;2.90;;
14994;SDS011;7593;49.006;8.372;2022-11-24T11:19:33;12.07;;;2.92;;
14994;SDS011;7593;49.006;8.372;2022-11-24T11:22:03;8.05;;;3.15;;
14994;SDS011;7593;49.006;8.372;2022-11-24T11:24:39;10.88;;;2.97;;
14994;SDS011;7593;49.006;8.372;2022-11-24T11:27:15;9.35;;;2.92;;
14994;SDS011;7593;49.006;8.372;2022-11-24T11:29:43;11.75;;;3.05;;
14994;SDS011;7593;49.006;8.372;2022-11-24T11:32:15;10.27;;;3.10;;
14994;SDS011;7593;49.006;8.372;2022-11-24T11:34:44;8.55;;;2.85;;
14994;SDS011;7593;49.006;8.372;2022-11-24T11:37:13;10.73;;;3.17;;
14994;SDS011;7593;49.006;8.372;2022-11-24T11:39:41;7.63;;;2.53;;
14994;SDS011;7593;49.006;8.372;2022-11-24T11:42:13;7.20;;;2.53;;
14994;SDS011;7593;49.006;8.372;2022-11-24T11:44:45;9.10;;;2.65;;
14994;SDS011;7593;49.006;8.372;2022-11-24T11:47:17;9.15;;;2.72;;
14994;SDS011;7593;49.006;8.372;2022-11-24T11:49:49;9.77;;;3.25;;
14994;SDS011;7593;49.006;8.372;2022-11-24T11:52:25;7.38;;;2.75;;
14994;SDS011;7593;49.006;8.372;2022-11-24T11:55:26;12.50;;;3.38;;
14994;SDS011;7593;49.006;8.372;2022-11-24T12:01:15;5.80;;;2.53;;
14994;SDS011;7593;49.006;8.372;2022-11-24T12:03:56;9.60;;;3.22;;
14994;SDS011;7593;49.006;8.372;2022-11-24T12:06:39;9.75;;;3.75;;
14994;SDS011;7593;49.006;8.372;2022-11-24T12:09:28;11.45;;;2.92;;
14994;SDS011;7593;49.006;8.372;2022-11-24T12:12:07;12.30;;;3.35;;
14994;SDS011;7593;49.006;8.372;2022-11-24T12:14:55;10.27;;;3.90;;
14994;SDS011;7593;49.006;8.372;2022-11-24T12:17:28;9.50;;;3.80;;
14994;SDS011;7593;49.006;8.372;2022-11-24T12:20:02;10.35;;;4.03;;
14994;SDS011;7593;49.006;8.372;2022-11-24T12:22:42;10.10;;;3.85;;
14994;SDS011;7593;49.006;8.372;2022-11-24T12:25:17;11.30;;;4.22;;
14994;SDS011;7593;49.006;8.372;2022-11-24T12:27:51;12.68;;;5.45;;
14994;SDS011;7593;49.006;8.372;2022-11-24T12:30:27;9.98;;;4.38;;
14994;SDS011;7593;49.006;8.372;2022-11-24T12:33:11;8.75;;;3.95;;
14994;SDS011;7593;49.006;8.372;2022-11-24T12:35:50;9.40;;;4.18;;
14994;SDS011;7593;49.006;8.372;2022-11-24T12:38:23;12.38;;;5.60;;
14994;SDS011;7593;49.006;8.372;2022-11-24T12:41:04;11.23;;;3.35;;
14994;SDS011;7593;49.006;8.372;2022-11-24T12:43:46;7.88;;;3.60;;
14994;SDS011;7593;49.006;8.372;2022-11-24T12:46:18;6.65;;;3.15;;
14994;SDS011;7593;49.006;8.372;2022-11-24T12:48:56;7.75;;;3.20;;
14994;SDS011;7593;49.006;8.372;2022-11-24T12:51:31;10.80;;;3.92;;
14994;SDS011;7593;49.006;8.372;2022-11-24T12:54:03;7.75;;;3.38;;
14994;SDS011;7593;49.006;8.372;2022-11-24T12:56:35;9.13;;;2.55;;
14994;SDS011;7593;49.006;8.372;2022-11-24T12:59:11;9.93;;;3.75;;
14994;SDS011;7593;49.006;8.372;2022-11-24T13:01:46;8.98;;;2.97;;
14994;SDS011;7593;49.006;8.372;2022-11-24T13:04:22;9.32;;;2.80;;
14994;SDS011;7593;49.006;8.372;2022-11-24T13:06:59;6.70;;;2.50;;
14994;SDS011;7593;49.006;8.372;2022-11-24T13:09:30;8.55;;;2.65;;
14994;SDS011;7593;49.006;8.372;2022-11-24T13:12:06;8.98;;;3.17;;
14994;SDS011;7593;49.006;8.372;2022-11-24T13:14:36;8.73;;;3.10;;
14994;SDS011;7593;49.006;8.372;2022-11-24T13:17:21;10.70;;;3.30;;
14994;SDS011;7593;49.006;8.372;2022-11-24T13:19:52;9.15;;;3.42;;
14994;SDS011;7593;49.006;8.372;2022-11-24T13:22:44;7.55;;;3.05;;
14994;SDS011;7593;49.006;8.372;2022-11-24T13:25:13;8.80;;;3.13;;
14994;SDS011;7593;49.006;8.372;2022-11-24T13:27:46;9.48;;;3.08;;
14994;SDS011;7593;49.006;8.372;2022-11-24T13:39:00;9.35;;;3.75;;
14994;SDS011;7593;49.006;8.372;2022-11-24T13:44:49;6.22;;;2.67;;
14994;SDS011;7593;49.006;8.372;2022-11-24T13:47:30;10.90;;;4.15;;
14994;SDS011;7593;49.006;8.372;2022-11-24T13:50:00;8.27;;;2.72;;
14994;SDS011;7593;49.006;8.372;2022-11-24T13:52:39;9.10;;;2.78;;
14994;SDS011;7593;49.006;8.372;2022-11-24T13:55:22;6.53;;;2.72;;
14994;SDS011;7593;49.006;8.372;2022-11-24T13:57:53;10.27;;;3.00;;
14994;SDS011;7593;49.006;8.372;2022-11-24T14:00:26;9.82;;;2.70;;
14994;SDS011;7593;49.006;8.372;2022-11-24T14:02:56;10.30;;;2.53;;
14994;SDS011;7593;49.006;8.372;2022-11-24T14:05:28;7.45;;;2.50;;
14994;SDS011;7593;49.006;8.372;2022-11-24T14:08:03;8.93;;;2.75;;
14994;SDS011;7593;49.006;8.372;2022-11-24T14:10:32;6.82;;;2.60;;
14994;SDS011;7593;49.006;8.372;2022-11-24T14:13:15;11.45;;;2.85;;
14994;SDS011;7593;49.006;8.372;2022-11-24T14:15:48;7.63;;;2.38;;
14994;SDS011;7593;49.006;8.372;2022-11-24T14:18:25;9.02;;;2.78;;
14994;SDS011;7593;49.006;8.372;2022-11-24T14:20:53;9.77;;;2.60;;
14994;SDS011;7593;49.006;8.372;2022-11-24T14:23:20;6.18;;;2.20;;
14994;SDS011;7593;49.006;8.372;2022-11-24T14:25:47;10.98;;;2.72;;
14994;SDS011;7593;49.006;8.372;2022-11-24T14:28:18;9.70;;;2.90;;
14994;SDS011;7593;49.006;8.372;2022-11-24T14:30:50;9.88;;;2.65;;
14994;SDS011;7593;49.006;8.372;2022-11-24T14:33:30;11.40;;;3.38;;
14994;SDS011;7593;49.006;8.372;2022-11-24T14:35:57;8.88;;;3.35;;
14994;SDS011;7593;49.006;8.372;2022-11-24T14:38:24;10.95;;;2.78;;
14994;SDS011;7593;49.006;8.372;2022-11-24T14:40:51;8.65;;;2.90;;
14994;SDS011;7593;49.006;8.372;2022-11-24T14:43:21;11.88;;;3.00;;
14994;SDS011;7593;49.006;8.372;2022-11-24T14:45:54;8.80;;;2.47;;
14994;SDS011;7593;49.006;8.372;2022-11-24T14:48:25;7.28;;;2.90;;
14994;SDS011;7593;49.006;8.372;2022-11-24T14:50:54;6.72;;;2.90;;
14994;SDS011;7593;49.006;8.372;2022-11-24T14:53:31;7.03;;;3.10;;
14994;SDS011;7593;49.006;8.372;2022-11-24T14:56:06;7.65;;;2.60;;
14994;SDS011;7593;49.006;8.372;2022-11-24T14:58:35;10.15;;;3.17;;
14994;SDS011;7593;49.006;8.372;2022-11-24T15:01:08;11.10;;;2.60;;
14994;SDS011;7593;49.006;8.372;2022-11-24T15:03:36;8.90;;;2.95;;
14994;SDS011;7593;49.006;8.372;2022-11-24T15:06:03;10.27;;;2.75;;
14994;SDS011;7593;49.006;8.372;2022-11-24T15:08:32;9.85;;;2.65;;
14994;SDS011;7593;49.006;8.372;2022-11-24T15:11:03;6.60;;;2.45;;
14994;SDS011;7593;49.006;8.372;2022-11-24T15:13:32;11.85;;;2.92;;
14994;SDS011;7593;49.006;8.372;2022-11-24T15:16:03;9.65;;;3.08;;
14994;SDS011;7593;49.006;8.372;2022-11-24T15:18:36;8.85;;;2.90;;
14994;SDS011;7593;49.006;8.372;2022-11-24T15:21:06;7.88;;;2.58;;
14994;SDS011;7593;49.006;8.372;2022-11-24T15:23:34;9.20;;;2.72;;
14994;SDS011;7593;49.006;8.372;2022-11-24T15:28:50;9.68;;;2.92;;
14994;SDS011;7593;49.006;8.372;2022-11-24T15:31:17;9.55;;;3.38;;
14994;SDS011;7593;49.006;8.372;2022-11-24T15:33:45;7.22;;;3.22;;